Time;durP1;ratioP1;P1;durP2;ratioP2;P2;SDS_P1;SDS_P2;PMS_P1;PMS_P2;Temp;Humidity;BMP_temperature;BMP_pressure;BME280_temperature;BME280_humidity;BME280_pressure;Samples;Min_cycle;Max_cycle;Signal;HPM_P1;HPM_P2
2022/04/30 00:00:46;;;;;;;8.30;5.50;;;14.80;61.00;;;;;;5091517;28;20444;-46
2022/04/30 00:03:14;;;;;;;8.80;5.50;;;14.60;60.80;;;;;;5091938;28;20460;-45
2022/04/30 00:05:40;;;;;;;8.07;5.13;;;14.90;60.90;;;;;;5092190;28;20540;-44
2022/04/30 00:08:08;;;;;;;10.50;4.70;;;14.30;60.40;;;;;;5091995;28;21002;-44
2022/04/30 00:10:38;;;;;;;8.70;4.60;;;14.30;60.70;;;;;;5091837;28;20437;-44
2022/04/30 00:13:06;;;;;;;9.77;5.57;;;14.50;60.90;;;;;;5092386;28;20433;-44
2022/04/30 00:15:34;;;;;;;6.07;4.47;;;14.10;60.40;;;;;;5092118;28;20532;-44
2022/04/30 00:18:01;;;;;;;10.13;4.77;;;14.00;60.70;;;;;;5091678;28;20471;-44
2022/04/30 00:20:29;;;;;;;10.97;6.03;;;14.20;61.10;;;;;;5091709;28;20486;-44
2022/04/30 00:22:56;;;;;;;12.70;5.57;;;14.00;61.10;;;;;;5073985;28;20448;-45
2022/04/30 00:25:23;;;;;;;12.00;5.27;;;14.30;62.10;;;;;;5092224;28;20796;-44
2022/04/30 00:27:50;;;;;;;10.30;5.50;;;13.80;61.70;;;;;;5094529;28;20476;-45
2022/04/30 00:30:18;;;;;;;10.60;5.27;;;14.10;62.50;;;;;;5095842;28;20482;-47
2022/04/30 00:32:46;;;;;;;17.47;5.70;;;13.80;62.80;;;;;;5096603;28;20429;-45
2022/04/30 00:35:14;;;;;;;7.57;4.47;;;13.70;62.90;;;;;;5096790;28;20833;-45
2022/04/30 00:37:42;;;;;;;11.73;5.43;;;13.90;63.40;;;;;;5096179;28;20452;-45
2022/04/30 00:40:10;;;;;;;10.10;6.30;;;13.80;63.60;;;;;;5095604;28;20965;-45
2022/04/30 00:42:36;;;;;;;10.60;5.00;;;13.40;63.30;;;;;;5095835;28;20480;-45
2022/04/30 00:45:04;;;;;;;8.43;4.90;;;13.60;63.60;;;;;;5096023;28;20459;-44
2022/04/30 00:47:31;;;;;;;4.83;4.30;;;13.90;64.00;;;;;;5095770;28;20551;-45
2022/04/30 00:49:58;;;;;;;6.20;4.60;;;13.80;64.50;;;;;;5095870;28;20440;-46
2022/04/30 00:52:26;;;;;;;8.60;4.87;;;13.60;64.30;;;;;;5096090;28;20433;-46
2022/04/30 00:54:59;;;;;;;11.33;5.27;;;13.20;64.60;;;;;;5095857;28;20827;-44
2022/04/30 00:57:28;;;;;;;8.83;7.33;;;13.30;64.90;;;;;;5095815;28;20459;-44
2022/04/30 01:00:00;;;;;;;14.10;7.70;;;13.00;65.10;;;;;;5095278;28;20438;-45
2022/04/30 01:02:28;;;;;;;11.10;8.07;;;12.90;65.60;;;;;;5095694;28;20450;-45
2022/04/30 01:05:14;;;;;;;10.40;7.67;;;12.90;66.00;;;;;;5095978;28;20440;-45
2022/04/30 01:07:40;;;;;;;15.40;8.00;;;13.20;66.80;;;;;;5095410;28;20491;-45
2022/04/30 01:10:10;;;;;;;11.17;7.77;;;13.30;67.30;;;;;;5095378;28;20446;-45
2022/04/30 01:12:37;;;;;;;7.83;6.97;;;13.30;67.20;;;;;;5095536;28;20436;-45
2022/04/30 01:15:06;;;;;;;12.60;7.33;;;13.30;67.60;;;;;;5095918;28;20714;-45
2022/04/30 01:17:35;;;;;;;14.83;8.40;;;13.10;67.50;;;;;;5095223;28;20459;-45
2022/04/30 01:20:04;;;;;;;11.27;7.90;;;13.00;67.70;;;;;;5094984;28;20435;-45
2022/04/30 01:22:34;;;;;;;9.20;6.97;;;13.20;67.90;;;;;;5076993;28;20457;-45
2022/04/30 01:25:04;;;;;;;9.67;6.70;;;13.00;67.90;;;;;;5095289;28;20434;-45
2022/04/30 01:27:31;;;;;;;9.77;7.50;;;13.50;68.20;;;;;;5096478;28;20483;-45
2022/04/30 01:30:00;;;;;;;10.07;7.17;;;13.40;68.40;;;;;;5095603;28;20439;-45
2022/04/30 01:37:58;;;;;;;11.53;6.30;;;13.10;68.50;;;;;;5096255;28;20447;-45
2022/04/30 01:40:26;;;;;;;10.27;6.60;;;13.20;69.20;;;;;;5094848;28;20925;-44
2022/04/30 01:42:55;;;;;;;8.93;6.60;;;13.20;69.80;;;;;;5094938;28;20451;-45
2022/04/30 01:45:23;;;;;;;10.60;7.63;;;13.10;69.90;;;;;;5094837;28;20945;-45
2022/04/30 01:47:49;;;;;;;8.00;7.10;;;13.30;70.50;;;;;;5094995;28;20487;-45
2022/04/30 01:50:16;;;;;;;9.37;7.20;;;13.00;70.60;;;;;;5096139;28;20502;-44
2022/04/30 01:52:43;;;;;;;12.10;7.70;;;13.00;70.80;;;;;;5096838;28;20433;-44
2022/04/30 01:55:10;;;;;;;12.30;7.67;;;13.20;71.40;;;;;;5095371;28;20840;-45
2022/04/30 01:57:40;;;;;;;10.80;6.70;;;12.50;70.70;;;;;;5094486;28;20514;-44
2022/04/30 02:00:09;;;;;;;11.97;6.90;;;12.50;70.60;;;;;;5094191;28;20437;-46
2022/04/30 02:02:45;;;;;;;13.23;7.80;;;12.60;70.80;;;;;;5094541;28;20758;-45
2022/04/30 02:05:13;;;;;;;10.57;6.73;;;12.60;71.00;;;;;;5076440;28;20539;-45
2022/04/30 02:07:45;;;;;;;15.80;7.80;;;12.80;71.40;;;;;;5094346;28;20489;-44
2022/04/30 02:10:12;;;;;;;10.13;7.67;;;12.70;71.90;;;;;;5094224;28;20831;-44
2022/04/30 02:12:41;;;;;;;8.93;6.67;;;12.50;71.70;;;;;;5094480;28;20435;-45
2022/04/30 02:15:10;;;;;;;9.43;7.03;;;12.50;72.00;;;;;;5094718;28;20462;-45
2022/04/30 02:17:40;;;;;;;11.00;7.60;;;12.70;72.40;;;;;;5094626;28;20462;-45
2022/04/30 02:20:22;;;;;;;14.40;8.27;;;12.50;72.70;;;;;;5094655;28;20418;-46
2022/04/30 02:22:50;;;;;;;10.07;7.37;;;12.40;73.20;;;;;;5094432;28;20421;-45
2022/04/30 02:25:19;;;;;;;11.07;8.13;;;12.80;73.30;;;;;;5094417;28;20489;-44
2022/04/30 02:27:48;;;;;;;16.03;7.40;;;12.30;73.00;;;;;;5094422;28;20480;-45
2022/04/30 02:30:17;;;;;;;10.33;8.23;;;12.50;73.20;;;;;;5093866;28;21006;-44
2022/04/30 02:32:46;;;;;;;11.23;8.13;;;12.20;72.40;;;;;;5094169;28;20469;-45
2022/04/30 02:35:14;;;;;;;12.77;7.27;;;12.30;72.60;;;;;;5095264;28;20525;-45
2022/04/30 02:37:44;;;;;;;10.37;8.33;;;12.10;72.20;;;;;;5096749;28;20455;-44
2022/04/30 02:40:13;;;;;;;10.23;8.13;;;12.50;72.30;;;;;;5096968;28;20527;-45
2022/04/30 02:42:40;;;;;;;16.57;8.93;;;12.00;72.20;;;;;;5096853;28;20442;-44
2022/04/30 02:45:09;;;;;;;10.53;8.27;;;11.60;72.20;;;;;;5097212;28;20514;-45
2022/04/30 02:47:36;;;;;;;15.70;8.77;;;12.20;72.80;;;;;;5097154;28;20489;-45
2022/04/30 02:50:03;;;;;;;14.03;9.30;;;12.40;72.90;;;;;;5096929;28;20431;-45
2022/04/30 02:52:30;;;;;;;11.80;9.30;;;12.30;72.40;;;;;;5097309;28;20442;-45
2022/04/30 02:54:56;;;;;;;10.23;7.80;;;12.40;72.40;;;;;;5096339;28;20813;-44
2022/04/30 02:57:23;;;;;;;10.40;7.50;;;12.10;72.70;;;;;;5096637;28;20959;-45
2022/04/30 02:59:55;;;;;;;11.33;7.10;;;12.10;72.60;;;;;;5078410;28;21204;-45
2022/04/30 03:03:01;;;;;;;11.63;7.30;;;11.60;71.90;;;;;;5097034;28;20446;-45
2022/04/30 03:05:29;;;;;;;9.40;6.23;;;12.10;72.20;;;;;;5095657;28;20431;-45
2022/04/30 03:07:56;;;;;;;9.87;5.13;;;12.40;72.10;;;;;;5093574;28;21062;-45
2022/04/30 03:10:23;;;;;;;6.63;4.40;;;12.20;72.20;;;;;;5093651;28;20435;-45
2022/04/30 03:12:49;;;;;;;6.40;5.20;;;12.20;71.40;;;;;;5074697;28;20452;-46
2022/04/30 03:15:19;;;;;;;8.60;5.00;;;11.90;71.30;;;;;;5093052;28;20434;-46
2022/04/30 03:23:16;;;;;;;10.30;4.33;;;11.70;70.30;;;;;;5093127;28;20515;-45
2022/04/30 03:25:44;;;;;;;9.13;4.60;;;11.70;70.40;;;;;;5093204;28;20438;-45
2022/04/30 03:28:11;;;;;;;6.43;4.83;;;12.10;70.60;;;;;;5093135;28;20571;-45
2022/04/30 03:30:37;;;;;;;5.97;4.70;;;11.60;70.10;;;;;;5092868;28;20430;-45
2022/04/30 03:33:04;;;;;;;12.27;5.27;;;11.80;70.80;;;;;;5093272;28;20441;-45
2022/04/30 03:35:32;;;;;;;8.10;4.63;;;11.50;70.80;;;;;;5092776;28;20929;-45
2022/04/30 03:37:59;;;;;;;7.57;4.27;;;12.10;71.60;;;;;;5092420;28;20458;-45
2022/04/30 03:40:25;;;;;;;6.20;4.00;;;11.80;71.10;;;;;;5092496;28;20433;-46
2022/04/30 03:42:52;;;;;;;7.00;4.13;;;11.80;71.20;;;;;;5092741;28;20438;-45
2022/04/30 03:45:18;;;;;;;6.53;4.40;;;11.80;71.00;;;;;;5092894;28;20436;-45
2022/04/30 03:47:45;;;;;;;9.63;4.40;;;11.70;70.80;;;;;;5074519;28;20484;-45
2022/04/30 03:50:11;;;;;;;6.53;4.63;;;11.70;70.70;;;;;;5092429;28;20440;-45
2022/04/30 03:52:40;;;;;;;6.80;4.03;;;11.70;70.60;;;;;;5093191;28;20433;-45
2022/04/30 03:55:09;;;;;;;6.00;4.07;;;11.80;71.20;;;;;;5092930;28;20884;-45
2022/04/30 03:57:36;;;;;;;10.20;4.77;;;12.00;70.70;;;;;;5093102;28;20553;-45
2022/04/30 04:00:04;;;;;;;8.73;4.80;;;11.40;70.60;;;;;;5092582;28;20467;-46
2022/04/30 04:02:41;;;;;;;7.90;4.30;;;11.60;71.10;;;;;;5092116;28;20428;-46
2022/04/30 04:05:10;;;;;;;7.93;4.53;;;11.90;71.70;;;;;;5092896;28;20492;-45
2022/04/30 04:07:37;;;;;;;5.47;4.07;;;12.70;72.60;;;;;;5114659;22;20496;-47
2022/04/30 04:10:06;;;;;;;5.53;3.60;;;11.90;71.70;;;;;;5090433;28;20514;-47
2022/04/30 04:12:33;;;;;;;10.97;4.90;;;12.10;72.20;;;;;;5090588;28;20432;-46
2022/04/30 04:17:44;;;;;;;6.87;4.37;;;11.60;72.30;;;;;;5090632;28;20991;-47
2022/04/30 04:20:13;;;;;;;8.93;4.90;;;12.10;73.40;;;;;;5090169;28;20445;-47
2022/04/30 04:22:40;;;;;;;7.43;4.43;;;11.90;73.20;;;;;;5090902;28;20431;-48
2022/04/30 04:27:55;;;;;;;7.13;3.87;;;11.60;72.90;;;;;;5090319;28;20477;-47
2022/04/30 04:30:22;;;;;;;7.30;4.43;;;11.70;73.50;;;;;;5090367;28;20902;-47
2022/04/30 04:32:48;;;;;;;10.60;5.47;;;11.00;73.10;;;;;;5090705;28;20511;-48
2022/04/30 04:35:15;;;;;;;15.37;6.23;;;11.70;74.00;;;;;;5090914;28;20464;-47
2022/04/30 04:37:42;;;;;;;14.80;5.60;;;12.10;74.50;;;;;;5090470;28;20536;-47
2022/04/30 04:40:12;;;;;;;9.33;5.23;;;11.70;74.00;;;;;;5090122;28;20456;-47
2022/04/30 04:42:39;;;;;;;6.47;4.63;;;11.50;73.60;;;;;;5090661;28;20465;-47
2022/04/30 04:45:07;;;;;;;10.53;5.37;;;12.10;74.20;;;;;;5090253;28;20440;-47
2022/04/30 04:47:35;;;;;;;11.50;5.50;;;11.60;73.80;;;;;;5089946;28;20963;-47
2022/04/30 04:50:02;;;;;;;11.00;5.30;;;11.70;73.90;;;;;;5090249;28;20528;-47
2022/04/30 04:52:29;;;;;;;6.63;4.53;;;12.10;74.20;;;;;;5090333;28;20503;-47
2022/04/30 04:54:57;;;;;;;10.37;5.47;;;11.80;73.60;;;;;;5090313;28;20489;-47
2022/04/30 04:57:25;;;;;;;5.57;4.43;;;11.70;73.20;;;;;;5090366;28;20455;-46
2022/04/30 04:59:53;;;;;;;5.37;3.90;;;11.80;73.30;;;;;;5090167;28;20484;-47
2022/04/30 05:02:20;;;;;;;8.60;5.03;;;12.50;73.80;;;;;;5090429;28;20433;-48
2022/04/30 05:04:47;;;;;;;9.73;5.00;;;12.60;74.10;;;;;;5090933;28;20429;-48
2022/04/30 05:07:14;;;;;;;6.57;4.77;;;11.60;72.90;;;;;;5090353;28;20485;-46
2022/04/30 05:09:40;;;;;;;8.33;5.07;;;12.00;73.20;;;;;;5090536;28;20468;-46
2022/04/30 05:12:08;;;;;;;7.33;3.80;;;12.00;72.90;;;;;;5090540;28;20758;-47
2022/04/30 05:14:36;;;;;;;8.93;5.53;;;12.40;73.50;;;;;;5093899;28;20438;-47
2022/04/30 05:17:04;;;;;;;6.60;4.10;;;11.80;73.00;;;;;;5075386;28;20950;-47
2022/04/30 05:19:31;;;;;;;9.07;5.17;;;12.10;73.30;;;;;;5093466;28;20437;-47
2022/04/30 05:21:57;;;;;;;8.50;4.57;;;12.30;73.70;;;;;;5093673;28;20431;-47
2022/04/30 05:24:24;;;;;;;7.97;4.23;;;12.60;73.70;;;;;;5093723;28;20958;-47
2022/04/30 05:26:51;;;;;;;6.33;4.47;;;12.60;74.00;;;;;;5093511;28;20443;-47
2022/04/30 05:29:18;;;;;;;8.20;4.93;;;12.20;74.00;;;;;;5093040;28;20484;-47
2022/04/30 05:31:46;;;;;;;9.00;5.20;;;12.20;72.70;;;;;;5093488;28;20444;-47
2022/04/30 05:34:13;;;;;;;6.00;4.73;;;12.30;72.20;;;;;;5093614;28;20442;-47
2022/04/30 05:36:40;;;;;;;14.93;5.87;;;12.30;72.70;;;;;;5093690;28;20529;-47
2022/04/30 05:39:06;;;;;;;10.83;5.63;;;12.30;72.90;;;;;;5092989;28;20817;-47
2022/04/30 05:41:33;;;;;;;7.57;5.73;;;12.70;73.70;;;;;;5093441;28;20922;-47
2022/04/30 05:44:00;;;;;;;11.13;7.93;;;12.50;73.60;;;;;;5093321;28;20468;-47
2022/04/30 05:46:26;;;;;;;13.97;7.13;;;12.90;73.70;;;;;;5093256;28;20426;-47
2022/04/30 05:48:54;;;;;;;12.20;7.07;;;12.70;72.80;;;;;;5092683;28;20509;-49
2022/04/30 05:51:21;;;;;;;11.17;6.07;;;12.50;72.50;;;;;;5093407;28;20446;-47
2022/04/30 05:53:47;;;;;;;7.33;5.63;;;12.60;72.50;;;;;;5093551;28;20866;-47
2022/04/30 05:56:14;;;;;;;7.53;5.47;;;12.40;72.00;;;;;;5093202;28;20432;-47
2022/04/30 05:58:41;;;;;;;8.73;5.33;;;12.80;72.10;;;;;;5092651;28;20948;-47
2022/04/30 06:01:07;;;;;;;10.50;6.93;;;13.30;72.70;;;;;;5093051;28;20433;-47
2022/04/30 06:03:34;;;;;;;10.30;7.20;;;12.50;71.30;;;;;;5092930;28;20433;-47
2022/04/30 06:06:03;;;;;;;12.67;6.77;;;12.90;71.10;;;;;;5093070;28;20953;-48
2022/04/30 06:08:29;;;;;;;10.13;6.97;;;13.20;71.40;;;;;;5092456;28;21000;-48
2022/04/30 06:10:56;;;;;;;5.53;5.03;;;13.00;70.70;;;;;;5093115;28;20428;-48
2022/04/30 06:13:23;;;;;;;7.70;6.27;;;12.80;69.80;;;;;;5092923;28;20879;-47
2022/04/30 06:15:50;;;;;;;10.83;5.40;;;13.60;70.80;;;;;;5092580;28;20919;-47
2022/04/30 06:18:17;;;;;;;9.77;5.60;;;13.70;70.60;;;;;;5092300;28;20942;-47
2022/04/30 06:20:43;;;;;;;10.80;6.20;;;13.40;69.90;;;;;;5092045;28;20432;-48
2022/04/30 06:23:15;;;;;;;12.30;6.17;;;13.60;69.80;;;;;;5092397;28;20446;-47
2022/04/30 06:25:42;;;;;;;9.13;6.30;;;13.80;70.30;;;;;;5091447;28;20444;-47
2022/04/30 06:28:09;;;;;;;8.17;6.37;;;13.00;69.60;;;;;;5092218;28;20475;-47
2022/04/30 06:30:35;;;;;;;10.27;7.10;;;14.00;71.00;;;;;;5091926;28;20427;-47
2022/04/30 06:33:02;;;;;;;8.70;6.70;;;13.50;70.30;;;;;;5092319;28;20444;-47
2022/04/30 06:35:28;;;;;;;10.97;7.00;;;13.60;70.30;;;;;;5092494;28;20469;-47
2022/04/30 06:37:55;;;;;;;8.13;6.63;;;13.10;70.10;;;;;;5092423;28;20601;-47
2022/04/30 06:40:23;;;;;;;14.23;7.50;;;13.60;70.70;;;;;;5092125;28;20803;-46
2022/04/30 06:42:49;;;;;;;11.53;7.73;;;14.30;71.30;;;;;;5092176;28;20434;-48
2022/04/30 06:45:17;;;;;;;16.70;9.33;;;13.90;71.10;;;;;;5091995;28;20447;-47
2022/04/30 06:47:43;;;;;;;10.37;7.97;;;13.50;70.60;;;;;;5091937;28;20487;-48
2022/04/30 06:50:11;;;;;;;14.50;7.20;;;13.80;71.10;;;;;;5091856;28;20428;-47
2022/04/30 06:57:07;;;;;;;15.20;7.00;;;14.40;71.90;;;;;;5092007;28;20440;-48
2022/04/30 06:58:10;;;;;;;8.20;6.63;;;14.00;71.10;;;;;;5091808;28;20462;-47
2022/04/30 07:03:23;;;;;;;16.43;7.10;;;13.90;71.00;;;;;;5090601;28;20449;-47
2022/04/30 07:05:50;;;;;;;8.70;6.63;;;14.00;71.40;;;;;;5091598;28;20425;-47
2022/04/30 07:08:17;;;;;;;10.60;7.50;;;15.10;72.50;;;;;;5091536;28;20487;-47
2022/04/30 07:10:45;;;;;;;10.27;5.80;;;14.10;71.40;;;;;;5090959;28;20924;-47
2022/04/30 07:13:11;;;;;;;7.90;6.20;;;14.30;71.30;;;;;;5091867;28;20443;-47
2022/04/30 07:15:38;;;;;;;8.70;5.83;;;14.40;71.60;;;;;;5091415;28;20675;-47
2022/04/30 07:18:05;;;;;;;12.90;6.00;;;14.30;70.80;;;;;;5091399;28;20450;-47
2022/04/30 07:20:32;;;;;;;10.93;5.70;;;14.30;70.10;;;;;;5090712;28;20428;-48
2022/04/30 07:22:58;;;;;;;8.87;6.17;;;14.30;69.10;;;;;;5091304;28;20444;-48
2022/04/30 07:25:25;;;;;;;7.20;4.87;;;14.10;68.50;;;;;;5090948;28;20453;-48
2022/04/30 07:27:53;;;;;;;12.10;6.20;;;14.50;68.70;;;;;;5090751;28;20530;-48
2022/04/30 07:30:20;;;;;;;9.17;5.50;;;14.80;68.60;;;;;;5072356;28;20437;-48
2022/04/30 07:32:46;;;;;;;9.03;5.43;;;14.30;67.60;;;;;;5091173;28;20456;-48
2022/04/30 07:35:13;;;;;;;8.00;5.27;;;15.00;67.70;;;;;;5090981;28;20436;-47
2022/04/30 07:37:40;;;;;;;9.60;5.20;;;14.70;66.70;;;;;;5090473;28;20453;-48
2022/04/30 07:40:08;;;;;;;7.73;5.37;;;15.40;67.30;;;;;;5090587;28;20943;-48
2022/04/30 07:42:34;;;;;;;68.97;16.57;;;15.10;66.80;;;;;;5090648;28;20442;-47
2022/04/30 07:45:02;;;;;;;13.00;5.77;;;15.10;66.60;;;;;;5090629;28;20508;-47
2022/04/30 07:47:29;;;;;;;8.00;4.93;;;15.40;66.80;;;;;;5090465;28;20528;-48
2022/04/30 07:49:56;;;;;;;10.20;6.07;;;15.40;66.40;;;;;;5090147;28;20484;-48
2022/04/30 07:52:22;;;;;;;16.87;5.37;;;15.00;65.80;;;;;;5091032;28;20823;-47
2022/04/30 07:54:49;;;;;;;7.03;5.37;;;15.50;65.70;;;;;;5090562;28;20786;-47
2022/04/30 07:57:16;;;;;;;9.83;7.20;;;15.70;65.80;;;;;;5090142;28;20443;-48
2022/04/30 07:59:44;;;;;;;9.93;5.33;;;16.00;66.00;;;;;;5090415;28;20990;-48
2022/04/30 08:02:12;;;;;;;8.07;5.00;;;15.60;65.60;;;;;;5090471;28;20436;-48
2022/04/30 08:04:39;;;;;;;9.20;4.73;;;15.70;65.80;;;;;;5090498;28;20912;-48
2022/04/30 08:07:06;;;;;;;7.90;5.37;;;15.70;65.80;;;;;;5090275;28;20429;-48
2022/04/30 08:09:32;;;;;;;9.13;5.40;;;15.70;65.60;;;;;;5071685;28;20509;-48
2022/04/30 08:11:59;;;;;;;12.40;5.17;;;15.60;65.70;;;;;;5090317;28;20433;-48
2022/04/30 08:14:25;;;;;;;8.30;5.40;;;15.50;65.50;;;;;;5090272;28;20995;-48
2022/04/30 08:16:52;;;;;;;7.77;5.23;;;15.20;65.50;;;;;;5090156;28;20433;-48
2022/04/30 08:19:20;;;;;;;8.60;4.73;;;15.80;66.30;;;;;;5089954;28;20490;-48
2022/04/30 08:21:48;;;;;;;8.97;5.17;;;15.70;66.00;;;;;;5090080;28;20798;-47
2022/04/30 08:24:15;;;;;;;8.93;5.07;;;16.30;66.60;;;;;;5090305;28;20933;-46
2022/04/30 08:26:43;;;;;;;7.33;5.20;;;15.30;65.40;;;;;;5089845;28;20441;-47
2022/04/30 08:29:09;;;;;;;8.13;5.07;;;15.80;65.80;;;;;;5089619;28;20988;-48
2022/04/30 08:31:36;;;;;;;8.10;4.60;;;16.10;66.40;;;;;;5090362;28;20465;-48
2022/04/30 08:34:03;;;;;;;4.90;3.80;;;15.60;66.40;;;;;;5090118;28;20538;-48
2022/04/30 08:36:30;;;;;;;8.13;4.70;;;15.70;67.10;;;;;;5090053;28;20432;-48
2022/04/30 08:38:57;;;;;;;6.27;4.83;;;15.80;67.20;;;;;;5089836;28;20906;-48
2022/04/30 08:41:24;;;;;;;8.50;4.80;;;15.60;66.70;;;;;;5090414;28;20456;-48
2022/04/30 08:43:50;;;;;;;8.50;4.80;;;15.60;66.00;;;;;;5090468;28;20841;-48
2022/04/30 08:46:19;;;;;;;9.33;5.07;;;16.10;65.80;;;;;;5071747;28;20434;-48
2022/04/30 08:48:46;;;;;;;5.57;4.00;;;16.00;64.90;;;;;;5091679;28;21032;-48
2022/04/30 08:51:15;;;;;;;6.23;4.50;;;15.80;64.30;;;;;;5093946;28;20434;-48
2022/04/30 08:53:43;;;;;;;10.47;4.53;;;15.70;63.40;;;;;;5094023;28;20901;-48
2022/04/30 08:56:10;;;;;;;6.40;4.20;;;16.40;63.60;;;;;;5094152;28;20428;-49
2022/04/30 08:58:36;;;;;;;6.33;5.03;;;16.50;64.10;;;;;;5093408;28;20453;-47
2022/04/30 09:01:05;;;;;;;10.90;4.00;;;16.10;63.30;;;;;;5093938;28;20438;-49
2022/04/30 09:03:35;;;;;;;13.03;4.90;;;16.20;64.10;;;;;;5094133;28;20554;-47
2022/04/30 09:06:03;;;;;;;6.60;4.80;;;16.00;62.80;;;;;;5093939;28;20432;-48
2022/04/30 09:08:31;;;;;;;7.20;3.87;;;16.40;62.70;;;;;;5092949;28;20562;-48
2022/04/30 09:11:07;;;;;;;6.70;4.90;;;16.50;63.10;;;;;;5093582;28;20502;-49
2022/04/30 09:13:42;;;;;;;6.70;4.23;;;16.70;63.20;;;;;;5093580;28;20458;-47
2022/04/30 09:16:18;;;;;;;11.10;5.73;;;16.70;63.20;;;;;;5093541;28;20715;-48
2022/04/30 09:18:44;;;;;;;7.27;3.70;;;16.40;63.20;;;;;;5093171;28;20444;-49
2022/04/30 09:21:14;;;;;;;7.50;4.13;;;16.30;63.10;;;;;;5074741;28;20994;-48
2022/04/30 09:23:41;;;;;;;7.53;4.73;;;16.40;63.10;;;;;;5092720;28;20447;-49
2022/04/30 09:26:10;;;;;;;10.27;4.93;;;16.50;62.40;;;;;;5093290;28;20920;-48
2022/04/30 09:28:38;;;;;;;10.20;4.73;;;16.40;61.70;;;;;;5092993;28;20485;-49
2022/04/30 09:31:08;;;;;;;5.70;4.20;;;16.50;61.70;;;;;;5093043;28;20864;-48
2022/04/30 09:33:35;;;;;;;7.37;4.87;;;16.60;61.60;;;;;;5093263;28;20925;-48
2022/04/30 09:38:48;;;;;;;7.03;4.87;;;16.90;61.40;;;;;;5074372;28;20524;-47
2022/04/30 09:41:22;;;;;;;8.70;4.60;;;16.70;61.40;;;;;;5093018;28;20442;-48
2022/04/30 09:43:59;;;;;;;8.97;4.90;;;17.00;61.00;;;;;;5092885;28;20434;-49
2022/04/30 09:46:27;;;;;;;9.77;4.97;;;16.90;60.90;;;;;;5092964;28;20440;-49
2022/04/30 09:54:26;;;;;;;8.73;4.73;;;16.50;61.50;;;;;;5092935;28;20434;-48
2022/04/30 09:56:55;;;;;;;7.03;5.13;;;16.30;60.70;;;;;;5074495;28;20450;-48
2022/04/30 09:59:25;;;;;;;5.07;4.50;;;17.00;61.70;;;;;;5072100;28;20449;-48
2022/04/30 10:01:54;;;;;;;9.83;3.60;;;17.30;61.90;;;;;;5092266;28;20529;-48
2022/04/30 10:04:21;;;;;;;8.70;4.90;;;17.50;62.00;;;;;;5092730;28;20451;-48
2022/04/30 10:06:49;;;;;;;5.73;4.47;;;17.30;61.40;;;;;;5092485;28;20930;-49
2022/04/30 10:09:17;;;;;;;5.87;4.73;;;17.50;61.60;;;;;;5115996;22;20556;-51
2022/04/30 10:11:52;;;;;;;6.20;4.60;;;17.50;61.60;;;;;;5093407;28;20430;-53
2022/04/30 10:14:31;;;;;;;9.80;4.60;;;17.90;62.20;;;;;;5093524;28;20444;-53
2022/04/30 10:17:16;;;;;;;6.13;4.13;;;17.90;62.30;;;;;;5093136;28;20895;-52
2022/04/30 10:19:45;;;;;;;7.00;4.00;;;17.60;62.20;;;;;;5072688;28;20432;-53
2022/04/30 10:22:13;;;;;;;9.50;4.50;;;17.80;62.50;;;;;;5073179;28;20506;-52
2022/04/30 10:24:48;;;;;;;4.20;3.70;;;18.00;62.50;;;;;;5073154;28;20450;-52
2022/04/30 10:27:15;;;;;;;7.70;4.33;;;17.90;61.20;;;;;;5072903;28;20539;-50
2022/04/30 10:29:57;;;;;;;7.10;4.40;;;17.90;61.90;;;;;;5072599;28;20487;-52
2022/04/30 10:32:31;;;;;;;7.00;3.93;;;17.60;59.30;;;;;;5072486;28;20914;-52
2022/04/30 10:34:58;;;;;;;6.60;4.23;;;18.10;60.50;;;;;;5072554;28;20424;-52
2022/04/30 10:37:33;;;;;;;10.73;4.37;;;17.90;59.10;;;;;;5072164;28;20535;-52
2022/04/30 10:40:00;;;;;;;7.17;5.00;;;17.80;59.50;;;;;;5072157;28;20440;-51
2022/04/30 10:42:31;;;;;;;12.53;5.27;;;17.80;59.10;;;;;;5072114;28;20429;-51
2022/04/30 10:44:59;;;;;;;7.33;4.30;;;17.80;58.70;;;;;;5072342;28;20458;-52
2022/04/30 10:47:26;;;;;;;5.47;4.17;;;18.20;58.60;;;;;;5072213;28;20467;-52
2022/04/30 10:49:53;;;;;;;6.63;3.90;;;17.50;57.50;;;;;;5071990;28;20520;-52
2022/04/30 10:52:22;;;;;;;5.23;3.90;;;18.20;57.40;;;;;;5072316;28;20459;-51
2022/04/30 10:54:50;;;;;;;12.50;4.10;;;18.00;57.00;;;;;;5072104;28;20812;-51
2022/04/30 10:57:17;;;;;;;8.00;3.60;;;18.10;56.30;;;;;;5071770;28;20433;-52
2022/04/30 10:59:44;;;;;;;4.80;3.87;;;17.80;56.60;;;;;;5071422;28;20970;-51
2022/04/30 11:02:13;;;;;;;5.90;4.20;;;18.00;56.40;;;;;;5071643;28;20916;-53
2022/04/30 11:04:43;;;;;;;3.90;3.50;;;18.60;56.70;;;;;;5071868;28;21080;-53
2022/04/30 11:07:11;;;;;;;8.17;4.13;;;18.70;55.70;;;;;;5071918;28;20441;-53
2022/04/30 11:09:42;;;;;;;7.20;3.93;;;18.50;56.00;;;;;;5071494;28;20476;-53
2022/04/30 11:12:14;;;;;;;9.33;3.50;;;18.30;55.50;;;;;;5071160;28;20441;-53
2022/04/30 11:14:42;;;;;;;7.47;4.20;;;18.60;55.70;;;;;;5071738;28;20472;-53
2022/04/30 11:17:09;;;;;;;6.40;3.90;;;18.70;55.80;;;;;;5071938;28;20574;-52
2022/04/30 11:19:40;;;;;;;7.33;3.70;;;19.00;56.20;;;;;;5071343;28;20509;-53
2022/04/30 11:22:09;;;;;;;6.80;3.93;;;18.90;56.20;;;;;;5071561;28;20897;-52
2022/04/30 11:24:37;;;;;;;7.03;4.10;;;18.90;56.40;;;;;;5071576;28;20437;-52
2022/04/30 11:27:05;;;;;;;5.50;4.10;;;18.90;56.00;;;;;;5071413;28;20953;-52
2022/04/30 11:29:33;;;;;;;10.33;4.50;;;19.00;55.90;;;;;;5071445;28;20829;-52
2022/04/30 11:32:00;;;;;;;11.27;4.43;;;19.00;55.90;;;;;;5071664;28;20921;-52
2022/04/30 11:34:27;;;;;;;8.20;4.40;;;19.20;56.00;;;;;;5071809;28;20483;-52
2022/04/30 11:36:57;;;;;;;13.63;3.80;;;19.50;55.90;;;;;;5071737;28;20815;-52
2022/04/30 11:39:24;;;;;;;4.97;3.70;;;19.00;55.00;;;;;;5071306;28;20517;-52
2022/04/30 11:41:53;;;;;;;7.03;4.53;;;18.80;54.50;;;;;;5071442;28;20528;-52
2022/04/30 11:44:22;;;;;;;5.70;3.93;;;19.20;54.80;;;;;;5071144;28;20434;-52
2022/04/30 11:46:51;;;;;;;6.50;3.87;;;19.30;54.20;;;;;;5071401;28;20738;-52
2022/04/30 11:49:19;;;;;;;22.23;13.27;;;19.40;53.70;;;;;;5070484;28;20485;-53
2022/04/30 11:51:47;;;;;;;12.43;4.13;;;19.20;53.00;;;;;;5071119;28;20521;-52
2022/04/30 11:54:18;;;;;;;9.50;4.40;;;19.40;52.80;;;;;;5071177;28;20827;-52
2022/04/30 11:56:45;;;;;;;4.53;3.70;;;19.70;52.80;;;;;;5071000;28;20445;-52
2022/04/30 11:59:12;;;;;;;5.63;4.33;;;19.70;52.70;;;;;;5070677;28;20460;-52
2022/04/30 12:01:41;;;;;;;6.60;4.10;;;20.00;52.70;;;;;;5071145;28;20434;-52
2022/04/30 12:04:11;;;;;;;9.10;3.63;;;19.80;52.80;;;;;;5071575;28;20437;-52
2022/04/30 12:06:39;;;;;;;7.80;3.53;;;19.70;51.90;;;;;;5069795;28;20546;-52
2022/04/30 12:09:15;;;;;;;7.17;5.00;;;19.60;52.00;;;;;;5070500;28;20575;-52
2022/04/30 12:11:43;;;;;;;7.30;3.87;;;19.70;52.00;;;;;;5071133;28;20437;-52
2022/04/30 12:14:11;;;;;;;8.03;4.83;;;19.90;52.10;;;;;;5070996;28;20462;-52
2022/04/30 12:16:39;;;;;;;9.27;5.67;;;19.80;51.60;;;;;;5071135;28;20430;-52
2022/04/30 12:25:00;;;;;;;7.30;4.60;;;19.50;51.70;;;;;;5070319;28;20987;-52
2022/04/30 12:27:28;;;;;;;10.13;4.30;;;19.70;51.20;;;;;;5070610;28;20939;-52
2022/04/30 12:30:03;;;;;;;7.00;4.53;;;19.90;50.90;;;;;;5070205;28;20482;-53
2022/04/30 12:32:30;;;;;;;7.53;4.50;;;19.80;50.50;;;;;;5070750;28;20526;-53
2022/04/30 12:34:58;;;;;;;6.40;4.40;;;20.10;51.30;;;;;;5071203;28;20438;-53
2022/04/30 12:37:32;;;;;;;7.30;4.20;;;20.30;50.00;;;;;;5070623;28;20492;-52
2022/04/30 12:40:00;;;;;;;6.23;4.10;;;20.20;50.50;;;;;;5070280;28;20431;-52
2022/04/30 12:42:27;;;;;;;4.80;4.30;;;20.50;50.40;;;;;;5070541;28;20434;-53
2022/04/30 12:44:54;;;;;;;6.20;4.53;;;19.80;49.70;;;;;;5070257;28;20843;-53
2022/04/30 12:47:20;;;;;;;5.53;3.90;;;20.10;48.80;;;;;;5070564;28;20932;-51
2022/04/30 12:49:47;;;;;;;5.37;3.57;;;20.50;49.70;;;;;;5070256;28;20479;-52
2022/04/30 12:52:14;;;;;;;5.73;3.97;;;20.60;49.90;;;;;;5070694;28;20433;-51
2022/04/30 12:54:41;;;;;;;8.83;3.73;;;20.40;49.30;;;;;;5068851;28;20454;-51
2022/04/30 12:57:11;;;;;;;6.20;4.40;;;20.40;49.20;;;;;;5069981;28;20495;-51
2022/04/30 12:59:38;;;;;;;11.90;4.33;;;20.50;49.20;;;;;;5069943;28;20436;-53
2022/04/30 13:02:05;;;;;;;8.47;4.10;;;20.50;48.90;;;;;;5069353;28;20493;-53
2022/04/30 13:04:34;;;;;;;6.30;3.80;;;20.40;48.70;;;;;;5070792;28;20439;-52
2022/04/30 13:07:00;;;;;;;10.73;4.57;;;20.60;48.40;;;;;;5069089;28;20495;-52
2022/04/30 13:14:58;;;;;;;6.47;5.23;;;20.10;46.70;;;;;;5070438;28;20510;-52
2022/04/30 13:17:24;;;;;;;7.00;3.33;;;20.40;46.90;;;;;;5070497;28;20448;-52
2022/04/30 13:19:53;;;;;;;4.37;3.30;;;20.30;47.50;;;;;;5070218;28;20514;-52
2022/04/30 13:22:19;;;;;;;5.57;3.97;;;20.40;47.20;;;;;;5070291;28;20485;-53
2022/04/30 13:24:46;;;;;;;8.27;4.03;;;20.30;46.60;;;;;;5068635;28;20447;-52
2022/04/30 13:27:14;;;;;;;6.17;3.50;;;20.40;45.60;;;;;;5070443;28;20613;-52
2022/04/30 13:29:42;;;;;;;5.00;4.00;;;20.80;46.50;;;;;;5070003;28;20889;-53